createdAt,value
2023-02-20T00:00:51.806Z,6.45
2023-02-20T00:03:24.331Z,6.42
2023-02-20T00:05:54.249Z,6.39
2023-02-20T00:08:24.087Z,6.30
2023-02-20T00:10:54.145Z,6.29
2023-02-20T00:13:24.013Z,6.28
2023-02-20T00:15:53.901Z,6.43
2023-02-20T00:18:26.319Z,6.35
2023-02-20T00:20:56.193Z,6.19
2023-02-20T00:23:26.096Z,6.23
2023-02-20T00:25:55.916Z,6.17
2023-02-20T00:28:25.968Z,6.26
2023-02-20T00:30:57.074Z,6.36
2023-02-20T00:33:31.372Z,6.18
2023-02-20T00:36:01.219Z,6.34
2023-02-20T00:38:31.037Z,6.02
2023-02-20T00:41:01.018Z,6.18
2023-02-20T00:43:31.758Z,6.21
2023-02-20T00:46:01.735Z,6.23
2023-02-20T00:48:34.370Z,6.31
2023-02-20T00:51:22.678Z,6.35
2023-02-20T00:53:52.620Z,6.03
2023-02-20T00:56:22.595Z,5.84
2023-02-20T00:58:52.740Z,6.27
2023-02-20T01:01:23.282Z,6.35
2023-02-20T01:03:56.054Z,6.57
2023-02-20T01:06:26.000Z,6.47
2023-02-20T01:08:55.837Z,6.16
2023-02-20T01:11:25.843Z,6.09
2023-02-20T01:13:55.896Z,5.94
2023-02-20T01:16:25.808Z,6.11
2023-02-20T01:18:58.534Z,6.42
2023-02-20T01:21:28.423Z,6.08
2023-02-20T01:23:58.363Z,6.16
2023-02-20T01:26:28.261Z,6.41
2023-02-20T01:28:58.195Z,6.26
2023-02-20T01:31:28.092Z,6.35
2023-02-20T01:34:00.552Z,7.64
2023-02-20T01:36:30.427Z,7.20
2023-02-20T01:39:00.415Z,6.80
2023-02-20T01:41:30.380Z,6.37
2023-02-20T01:44:00.194Z,6.37
2023-02-20T01:46:53.176Z,6.19
2023-02-20T01:49:32.804Z,6.07
2023-02-20T01:52:10.357Z,5.88
2023-02-20T01:54:46.056Z,5.97
2023-02-20T01:57:22.303Z,5.83
2023-02-20T01:59:58.256Z,6.11
2023-02-20T02:02:33.411Z,6.20
2023-02-20T02:05:06.382Z,6.06
2023-02-20T02:07:36.302Z,6.28
2023-02-20T02:10:11.394Z,6.37
2023-02-20T02:12:42.942Z,6.28
2023-02-20T02:15:17.733Z,6.33
2023-02-20T02:18:11.575Z,6.41
2023-02-20T02:21:15.269Z,6.58
2023-02-20T02:24:15.913Z,6.23
2023-02-20T02:27:33.954Z,6.19
2023-02-20T02:30:42.512Z,6.29
2023-02-20T02:33:50.790Z,6.18
2023-02-20T02:36:49.782Z,6.22
2023-02-20T02:39:29.550Z,6.38
2023-02-20T02:42:11.510Z,6.64
2023-02-20T02:44:53.167Z,6.48
2023-02-20T02:47:31.202Z,6.66
2023-02-20T02:50:07.029Z,7.01
2023-02-20T02:52:48.608Z,6.58
2023-02-20T02:55:21.809Z,6.53
2023-02-20T02:57:52.046Z,6.67
2023-02-20T03:00:27.983Z,6.73
2023-02-20T03:03:12.193Z,6.87
2023-02-20T03:05:50.212Z,7.04
2023-02-20T03:08:33.674Z,6.90
2023-02-20T03:11:09.056Z,6.70
2023-02-20T03:13:57.605Z,6.27
2023-02-20T03:16:35.991Z,6.98
2023-02-20T03:19:13.789Z,6.76
2023-02-20T03:21:49.046Z,7.15
2023-02-20T03:24:25.609Z,7.06
2023-02-20T03:27:00.712Z,7.18
2023-02-20T03:29:37.720Z,7.03
2023-02-20T03:32:25.409Z,7.31
2023-02-20T03:35:10.292Z,7.15
2023-02-20T03:37:58.085Z,7.21
2023-02-20T03:40:46.515Z,7.31
2023-02-20T03:43:24.672Z,7.38
2023-02-20T03:46:05.070Z,7.19
2023-02-20T03:48:42.877Z,7.26
2023-02-20T03:51:14.455Z,6.95
2023-02-20T03:54:00.637Z,7.37
2023-02-20T03:56:38.284Z,7.08
2023-02-20T03:59:17.502Z,7.29
2023-02-20T04:01:52.190Z,7.07
2023-02-20T04:04:29.197Z,6.70
2023-02-20T04:07:03.376Z,7.26
2023-02-20T04:09:38.818Z,7.44
2023-02-20T04:12:19.796Z,7.26
2023-02-20T04:14:53.175Z,7.62
2023-02-20T04:17:29.080Z,7.63
2023-02-20T04:19:59.898Z,7.54
2023-02-20T04:22:38.694Z,7.76
2023-02-20T04:25:20.865Z,7.70
2023-02-20T04:27:53.906Z,7.30
2023-02-20T04:30:24.094Z,7.76
2023-02-20T04:32:54.284Z,8.01
2023-02-20T04:35:24.573Z,8.27
2023-02-20T04:37:54.389Z,8.20
2023-02-20T04:40:27.226Z,8.24
2023-02-20T04:42:59.673Z,7.87
2023-02-20T04:45:29.947Z,8.40
2023-02-20T04:48:00.017Z,7.90
2023-02-20T04:50:32.866Z,8.47
2023-02-20T04:53:03.598Z,8.48
2023-02-20T04:55:33.479Z,8.64
2023-02-20T04:58:11.674Z,8.91
2023-02-20T05:00:53.972Z,9.08
2023-02-20T05:03:24.170Z,10.60
2023-02-20T05:05:54.116Z,10.70
2023-02-20T05:08:23.932Z,11.36
2023-02-20T05:10:54.032Z,11.00
2023-02-20T05:13:26.417Z,10.26
2023-02-20T05:15:56.312Z,9.78
2023-02-20T05:18:29.890Z,8.74
2023-02-20T05:21:12.542Z,8.55
2023-02-20T05:23:42.526Z,8.66
2023-02-20T05:26:13.762Z,8.15
2023-02-20T05:28:46.555Z,8.45
2023-02-20T05:31:17.869Z,8.44
2023-02-20T05:33:48.022Z,8.66
2023-02-20T05:36:18.741Z,9.08
2023-02-20T05:38:49.401Z,8.81
2023-02-20T05:41:19.630Z,9.00
2023-02-20T05:43:53.516Z,11.98
2023-02-20T05:46:23.491Z,11.80
2023-02-20T05:48:54.220Z,9.39
2023-02-20T05:51:26.872Z,9.42
2023-02-20T05:53:57.122Z,10.01
2023-02-20T05:56:27.898Z,9.28
2023-02-20T05:59:00.366Z,9.48
2023-02-20T06:01:33.019Z,8.98
2023-02-20T06:04:04.135Z,9.46
2023-02-20T06:06:38.963Z,9.98
2023-02-20T06:09:10.814Z,8.99
2023-02-20T06:11:41.158Z,9.29
2023-02-20T06:14:13.642Z,8.95
2023-02-20T06:16:46.138Z,9.30
2023-02-20T06:19:22.545Z,8.78
2023-02-20T06:21:53.611Z,8.76
2023-02-20T06:24:24.822Z,9.16
2023-02-20T06:26:54.931Z,9.91
2023-02-20T06:29:27.525Z,9.35
2023-02-20T06:31:57.451Z,9.51
2023-02-20T06:34:31.690Z,8.90
2023-02-20T06:37:03.027Z,9.05
2023-02-20T06:39:34.791Z,8.83
2023-02-20T06:42:04.885Z,8.83
2023-02-20T06:44:37.283Z,8.84
2023-02-20T06:47:09.295Z,8.80
2023-02-20T06:49:41.910Z,8.59
2023-02-20T06:52:11.791Z,9.07
2023-02-20T06:54:41.628Z,9.03
2023-02-20T06:57:11.499Z,8.83
2023-02-20T06:59:44.295Z,9.11
2023-02-20T07:02:14.840Z,8.87
2023-02-20T07:04:45.042Z,9.04
2023-02-20T07:07:14.907Z,8.72
2023-02-20T07:09:44.858Z,9.22
2023-02-20T07:12:15.188Z,9.39
2023-02-20T07:14:47.641Z,9.01
2023-02-20T07:17:17.484Z,8.92
2023-02-20T07:19:47.354Z,9.01
2023-02-20T07:22:17.263Z,9.41
2023-02-20T07:24:47.366Z,8.77
2023-02-20T07:27:17.192Z,8.76
2023-02-20T07:29:52.207Z,8.50
2023-02-20T07:32:23.634Z,8.82
2023-02-20T07:35:03.739Z,8.51
2023-02-20T07:37:35.156Z,9.01
2023-02-20T07:40:05.666Z,8.98
2023-02-20T07:42:35.537Z,8.64
2023-02-20T07:45:24.532Z,8.99
2023-02-20T07:47:54.408Z,8.85
2023-02-20T07:50:24.484Z,8.82
2023-02-20T07:52:54.388Z,8.85
2023-02-20T07:55:24.491Z,8.73
2023-02-20T07:57:58.242Z,8.67
2023-02-20T08:00:30.934Z,8.67
2023-02-20T08:03:01.245Z,8.89
2023-02-20T08:05:40.132Z,8.38
2023-02-20T08:08:13.952Z,8.20
2023-02-20T08:10:43.852Z,8.23
2023-02-20T08:13:13.783Z,8.79
2023-02-20T08:15:48.161Z,8.59
2023-02-20T08:18:23.733Z,7.95
2023-02-20T08:20:54.053Z,8.51
2023-02-20T08:23:26.833Z,8.40
2023-02-20T08:25:57.277Z,8.51
2023-02-20T08:28:27.147Z,9.10
2023-02-20T08:31:00.071Z,8.93
2023-02-20T08:33:29.945Z,11.12
2023-02-20T08:36:01.143Z,8.45
2023-02-20T08:38:34.493Z,7.51
2023-02-20T08:41:07.830Z,8.18
2023-02-20T08:43:39.157Z,9.09
2023-02-20T08:46:12.345Z,7.64
2023-02-20T08:48:42.745Z,7.75
2023-02-20T08:51:12.973Z,7.31
2023-02-20T08:53:43.212Z,6.82
2023-02-20T08:56:13.509Z,7.44
2023-02-20T08:58:43.635Z,7.85
2023-02-20T09:01:16.116Z,7.43
2023-02-20T09:03:45.985Z,7.21
2023-02-20T09:06:15.908Z,6.58
2023-02-20T09:08:46.062Z,6.91
2023-02-20T09:11:16.296Z,6.54
2023-02-20T09:13:46.862Z,6.59
2023-02-20T09:16:23.416Z,6.68
2023-02-20T09:18:57.438Z,6.59
2023-02-20T09:21:28.658Z,7.54
2023-02-20T09:23:58.532Z,7.60
2023-02-20T09:26:28.462Z,6.37
2023-02-20T09:28:58.278Z,6.18
2023-02-20T09:31:30.924Z,6.37
2023-02-20T09:34:01.009Z,5.87
2023-02-20T09:36:31.290Z,5.86
2023-02-20T09:39:01.317Z,5.54
2023-02-20T09:42:03.458Z,5.74
2023-02-20T09:44:47.768Z,5.16
2023-02-20T09:47:41.385Z,5.57
2023-02-20T09:50:19.208Z,5.52
2023-02-20T09:53:00.881Z,5.78
2023-02-20T09:55:38.876Z,5.61
2023-02-20T09:58:19.808Z,5.54
2023-02-20T10:00:50.496Z,5.29
2023-02-20T10:03:35.173Z,5.47
2023-02-20T10:06:18.044Z,5.07
2023-02-20T10:08:51.628Z,5.14
2023-02-20T10:11:35.800Z,7.82
2023-02-20T10:14:32.312Z,5.52
2023-02-20T10:17:15.487Z,5.26
2023-02-20T10:19:56.791Z,5.31
2023-02-20T10:22:35.699Z,4.81
2023-02-20T10:25:18.411Z,4.65
2023-02-20T10:27:56.716Z,4.74
2023-02-20T10:30:33.924Z,5.00
2023-02-20T10:33:18.599Z,4.41
2023-02-20T10:35:56.124Z,4.80
2023-02-20T10:38:32.501Z,4.51
2023-02-20T10:41:11.791Z,4.66
2023-02-20T10:43:49.623Z,4.82
2023-02-20T10:46:36.871Z,4.48
2023-02-20T10:49:20.462Z,4.94
2023-02-20T10:51:59.344Z,5.96
2023-02-20T10:54:38.362Z,5.47
2023-02-20T10:57:19.061Z,5.63
2023-02-20T10:59:59.537Z,6.54
2023-02-20T11:02:35.867Z,6.29
2023-02-20T11:05:11.762Z,6.37
2023-02-20T11:07:44.786Z,5.92
2023-02-20T11:10:14.822Z,6.27
2023-02-20T11:12:50.792Z,6.66
2023-02-20T11:15:25.940Z,6.61
2023-02-20T11:17:59.888Z,6.73
2023-02-20T11:20:50.541Z,6.95
2023-02-20T11:23:44.870Z,7.29
2023-02-20T11:26:35.495Z,6.28
2023-02-20T11:29:15.043Z,6.28
2023-02-20T11:31:47.905Z,5.89
2023-02-20T11:34:22.247Z,6.07
2023-02-20T11:36:56.184Z,6.26
2023-02-20T11:39:33.104Z,6.41
2023-02-20T11:42:15.916Z,6.11
2023-02-20T11:44:48.647Z,5.46
2023-02-20T11:47:26.964Z,5.47
2023-02-20T11:50:19.898Z,6.17
2023-02-20T11:53:06.215Z,6.00
2023-02-20T11:55:41.127Z,5.58
2023-02-20T11:58:25.242Z,5.84
2023-02-20T12:00:57.808Z,6.06
2023-02-20T12:03:29.481Z,5.82
2023-02-20T12:06:00.837Z,5.98
2023-02-20T12:08:52.894Z,5.71
2023-02-20T12:11:28.792Z,6.06
2023-02-20T12:14:01.174Z,5.95
2023-02-20T12:17:02.738Z,5.91
2023-02-20T12:19:48.350Z,5.48
2023-02-20T12:22:25.161Z,5.85
2023-02-20T12:25:14.042Z,5.67
2023-02-20T12:28:11.861Z,5.76
2023-02-20T12:31:00.041Z,6.24
2023-02-20T12:33:50.524Z,5.96
2023-02-20T12:36:31.672Z,6.37
2023-02-20T12:39:08.850Z,6.19
2023-02-20T12:41:57.301Z,6.11
2023-02-20T12:44:48.471Z,6.77
2023-02-20T12:47:29.805Z,6.54
2023-02-20T12:50:26.997Z,6.38
2023-02-20T12:53:09.859Z,6.90
2023-02-20T12:55:54.104Z,6.68
2023-02-20T12:58:36.362Z,6.35
2023-02-20T13:01:13.809Z,6.24
2023-02-20T13:03:54.089Z,6.20
2023-02-20T13:06:33.431Z,6.19
2023-02-20T13:09:12.736Z,6.41
2023-02-20T13:11:47.407Z,6.21
2023-02-20T13:14:36.981Z,6.46
2023-02-20T13:17:29.340Z,6.30
2023-02-20T13:20:09.600Z,5.86
2023-02-20T13:22:39.493Z,6.32
2023-02-20T13:25:44.162Z,6.55
2023-02-20T13:28:45.856Z,6.64
2023-02-20T13:31:24.431Z,6.42
2023-02-20T13:34:31.951Z,6.59
2023-02-20T13:37:05.143Z,6.22
2023-02-20T13:39:40.375Z,5.77
2023-02-20T13:42:42.928Z,5.78
2023-02-20T13:45:41.565Z,5.78
2023-02-20T13:48:22.762Z,5.51
2023-02-20T13:50:52.628Z,5.29
2023-02-20T13:53:25.309Z,5.96
2023-02-20T13:55:55.234Z,5.66
2023-02-20T13:58:27.079Z,5.78
2023-02-20T14:00:58.073Z,5.52
2023-02-20T14:03:31.109Z,5.73
2023-02-20T14:06:11.933Z,5.55
2023-02-20T14:08:47.221Z,5.53
2023-02-20T14:11:27.087Z,5.12
2023-02-20T14:13:59.716Z,5.10
2023-02-20T14:16:35.894Z,5.35
2023-02-20T14:19:11.866Z,5.35
2023-02-20T14:21:41.808Z,5.26
2023-02-20T14:24:23.084Z,4.86
2023-02-20T14:26:56.232Z,5.00
2023-02-20T14:29:30.179Z,5.12
2023-02-20T14:32:03.106Z,4.75
2023-02-20T14:34:51.300Z,4.53
2023-02-20T14:37:31.642Z,4.56
2023-02-20T14:40:13.972Z,4.97
2023-02-20T14:42:48.145Z,4.85
2023-02-20T14:45:22.152Z,4.98
2023-02-20T14:47:56.785Z,4.67
2023-02-20T14:50:29.685Z,4.63
2023-02-20T14:53:07.345Z,4.40
2023-02-20T14:55:39.747Z,4.27
2023-02-20T14:58:10.080Z,4.08
2023-02-20T15:00:42.333Z,4.52
2023-02-20T15:03:30.164Z,4.12
2023-02-20T15:06:05.696Z,4.27
2023-02-20T15:08:38.856Z,4.07
2023-02-20T15:11:14.873Z,4.29
2023-02-20T15:13:48.977Z,4.49
2023-02-20T15:16:25.382Z,4.29
2023-02-20T15:18:56.206Z,4.33
2023-02-20T15:21:38.484Z,4.32
2023-02-20T15:24:36.383Z,4.23
2023-02-20T15:27:23.302Z,4.61
2023-02-20T15:30:12.458Z,4.92
2023-02-20T15:32:45.079Z,4.85
2023-02-20T15:35:21.818Z,4.80
2023-02-20T15:37:51.681Z,5.16
2023-02-20T15:40:26.153Z,6.32
2023-02-20T15:43:04.877Z,4.98
2023-02-20T15:45:43.479Z,4.90
2023-02-20T15:48:13.350Z,4.51
2023-02-20T15:50:43.321Z,4.53
2023-02-20T15:53:20.431Z,4.17
2023-02-20T15:55:52.522Z,4.15
2023-02-20T15:58:34.920Z,4.15
2023-02-20T16:01:06.805Z,4.32
2023-02-20T16:03:50.494Z,4.31
2023-02-20T16:06:22.399Z,4.43
2023-02-20T16:08:53.730Z,4.35
2023-02-20T16:11:26.670Z,4.27
2023-02-20T16:14:02.451Z,4.43
2023-02-20T16:16:36.689Z,4.59
2023-02-20T16:19:14.781Z,4.51
2023-02-20T16:21:56.882Z,4.65
2023-02-20T16:24:28.401Z,4.94
2023-02-20T16:26:58.458Z,4.69
2023-02-20T16:29:36.440Z,4.54
2023-02-20T16:32:21.003Z,4.50
2023-02-20T16:34:52.052Z,4.18
2023-02-20T16:37:22.578Z,4.14
2023-02-20T16:39:52.880Z,3.91
2023-02-20T16:42:35.953Z,4.70
2023-02-20T16:45:14.258Z,4.21
2023-02-20T16:47:44.478Z,3.87
2023-02-20T16:50:20.038Z,4.24
2023-02-20T16:52:52.369Z,4.18
2023-02-20T16:55:26.690Z,4.17
2023-02-20T16:57:57.426Z,4.25
2023-02-20T17:00:34.347Z,4.07
2023-02-20T17:03:06.941Z,3.94
2023-02-20T17:05:40.114Z,3.83
2023-02-20T17:08:10.347Z,3.95
2023-02-20T17:10:40.291Z,4.88
2023-02-20T17:13:10.186Z,4.27
2023-02-20T17:15:44.544Z,4.95
2023-02-20T17:18:14.552Z,4.00
2023-02-20T17:20:44.842Z,3.77
2023-02-20T17:23:14.744Z,4.19
2023-02-20T17:25:44.706Z,3.94
2023-02-20T17:28:15.988Z,4.35
2023-02-20T17:30:53.184Z,5.65
2023-02-20T17:33:25.625Z,5.25
2023-02-20T17:35:56.551Z,4.93
2023-02-20T17:38:26.749Z,5.17
2023-02-20T17:40:58.454Z,5.58
2023-02-20T17:43:28.549Z,5.36
2023-02-20T17:46:01.008Z,5.01
2023-02-20T17:48:30.825Z,5.36
2023-02-20T17:51:00.675Z,7.04
2023-02-20T17:53:30.495Z,5.75
2023-02-20T17:56:00.472Z,5.28
2023-02-20T17:58:30.328Z,5.29
2023-02-20T18:01:02.842Z,5.64
2023-02-20T18:03:32.692Z,5.46
2023-02-20T18:06:02.642Z,5.33
2023-02-20T18:08:32.579Z,5.19
2023-02-20T18:11:02.569Z,5.41
2023-02-20T18:13:32.468Z,5.65
2023-02-20T18:16:06.162Z,5.84
2023-02-20T18:18:36.083Z,6.12
2023-02-20T18:21:06.197Z,5.62
2023-02-20T18:23:36.102Z,5.46
2023-02-20T18:26:05.997Z,6.74
2023-02-20T18:28:35.863Z,6.45
2023-02-20T18:31:09.063Z,6.12
2023-02-20T18:33:39.381Z,6.81
2023-02-20T18:36:10.786Z,6.82
2023-02-20T18:38:40.721Z,6.97
2023-02-20T18:41:13.239Z,6.23
2023-02-20T18:43:46.834Z,6.61
2023-02-20T18:46:29.973Z,6.33
2023-02-20T18:49:02.234Z,6.17
2023-02-20T18:51:33.742Z,6.19
2023-02-20T18:54:04.741Z,6.77
2023-02-20T18:56:36.414Z,7.23
2023-02-20T18:59:06.814Z,6.91
2023-02-20T19:01:43.993Z,6.82
2023-02-20T19:04:15.361Z,7.40
2023-02-20T19:06:47.124Z,7.17
2023-02-20T19:09:19.710Z,7.21
2023-02-20T19:11:52.423Z,7.32
2023-02-20T19:14:23.548Z,7.43
2023-02-20T19:16:58.857Z,8.36
2023-02-20T19:19:31.128Z,9.73
2023-02-20T19:22:01.558Z,8.10
2023-02-20T19:24:31.441Z,7.51
2023-02-20T19:27:01.391Z,7.97
2023-02-20T19:29:31.305Z,7.63
2023-02-20T19:32:03.770Z,7.63
2023-02-20T19:34:33.688Z,7.89
2023-02-20T19:37:05.374Z,7.67
2023-02-20T19:39:35.306Z,7.56
2023-02-20T19:42:05.871Z,7.51
2023-02-20T19:44:35.793Z,7.77
2023-02-20T19:47:09.213Z,7.63
2023-02-20T19:49:39.073Z,7.64
2023-02-20T19:52:09.209Z,7.78
2023-02-20T19:54:40.035Z,7.17
2023-02-20T19:57:10.056Z,7.86
2023-02-20T19:59:39.929Z,8.34
2023-02-20T20:02:14.529Z,7.80
2023-02-20T20:04:47.075Z,8.38
2023-02-20T20:07:17.015Z,8.41
2023-02-20T20:09:47.478Z,7.58
2023-02-20T20:12:29.844Z,8.14
2023-02-20T20:14:59.773Z,8.11
2023-02-20T20:17:32.313Z,8.48
2023-02-20T20:20:02.406Z,8.11
2023-02-20T20:22:32.929Z,7.90
2023-02-20T20:25:02.796Z,9.44
2023-02-20T20:27:32.662Z,9.23
2023-02-20T20:30:02.659Z,8.46
2023-02-20T20:32:35.587Z,8.40
2023-02-20T20:35:05.596Z,8.52
2023-02-20T20:37:35.516Z,8.38
2023-02-20T20:40:06.990Z,8.63
2023-02-20T20:42:37.543Z,9.49
2023-02-20T20:45:08.013Z,8.97
2023-02-20T20:47:40.583Z,9.14
2023-02-20T20:50:11.104Z,9.07
2023-02-20T20:52:40.970Z,9.33
2023-02-20T20:55:12.343Z,8.96
2023-02-20T20:57:42.420Z,9.24
2023-02-20T21:00:22.985Z,9.68
2023-02-20T21:02:56.351Z,9.47
2023-02-20T21:05:30.573Z,9.67
2023-02-20T21:08:00.897Z,9.81
2023-02-20T21:10:31.379Z,9.57
2023-02-20T21:13:01.414Z,10.18
2023-02-20T21:15:32.285Z,9.94
2023-02-20T21:18:05.243Z,9.74
2023-02-20T21:20:36.183Z,9.31
2023-02-20T21:23:09.343Z,8.78
2023-02-20T21:25:39.563Z,9.44
2023-02-20T21:28:09.392Z,9.03
2023-02-20T21:30:39.320Z,8.98
2023-02-20T21:33:11.832Z,8.80
2023-02-20T21:35:44.258Z,8.66
2023-02-20T21:38:16.405Z,8.27
2023-02-20T21:40:46.360Z,8.46
2023-02-20T21:43:31.840Z,8.41
2023-02-20T21:46:01.871Z,8.75
2023-02-20T21:48:34.509Z,8.63
2023-02-20T21:51:04.902Z,8.57
2023-02-20T21:53:34.858Z,8.54
2023-02-20T21:56:05.674Z,8.46
2023-02-20T21:58:53.491Z,8.30
2023-02-20T22:01:20.722Z,8.09
2023-02-20T22:03:51.736Z,8.35
2023-02-20T22:06:18.999Z,8.15
2023-02-20T22:09:01.469Z,8.05
2023-02-20T22:11:44.112Z,7.85
2023-02-20T22:14:26.485Z,7.66
2023-02-20T22:17:08.897Z,7.82
2023-02-20T22:19:53.831Z,7.58
2023-02-20T22:22:36.276Z,7.66
2023-02-20T22:25:18.895Z,7.40
2023-02-20T22:28:01.815Z,7.23
2023-02-20T22:30:44.167Z,7.57
2023-02-20T22:33:29.020Z,7.80
2023-02-20T22:36:14.019Z,7.62
2023-02-20T22:38:56.390Z,7.81
2023-02-20T22:41:38.800Z,7.93
2023-02-20T22:44:21.264Z,7.85
2023-02-20T22:47:03.749Z,7.68
2023-02-20T22:49:46.190Z,7.70
2023-02-20T22:52:31.199Z,7.59
2023-02-20T22:55:13.580Z,7.76
2023-02-20T22:57:55.918Z,7.88
2023-02-20T23:00:38.550Z,8.14
2023-02-20T23:03:21.329Z,7.84
2023-02-20T23:06:15.106Z,8.04
2023-02-20T23:09:03.030Z,7.39
2023-02-20T23:11:47.993Z,6.97
2023-02-20T23:14:30.606Z,7.22
2023-02-20T23:17:12.909Z,7.22
2023-02-20T23:19:57.040Z,6.94
2023-02-20T23:22:39.442Z,7.52
2023-02-20T23:25:24.357Z,7.27
2023-02-20T23:28:06.728Z,7.43
2023-02-20T23:30:49.025Z,7.58
2023-02-20T23:33:31.337Z,7.15
2023-02-20T23:36:13.699Z,7.50
2023-02-20T23:38:56.044Z,7.38
2023-02-20T23:41:40.976Z,7.34
2023-02-20T23:44:23.246Z,7.39
2023-02-20T23:47:11.407Z,8.20
2023-02-20T23:49:55.847Z,7.63
2023-02-20T23:52:38.104Z,7.43
2023-02-20T23:55:20.952Z,6.92
2023-02-20T23:58:05.860Z,7.05
